createdAt,value
2023-03-30T00:02:39.039Z,7.08
2023-03-30T00:05:43.298Z,7.10
2023-03-30T00:08:45.975Z,7.10
2023-03-30T00:11:49.119Z,7.13
2023-03-30T00:14:51.804Z,7.15
2023-03-30T00:17:55.339Z,6.99
2023-03-30T00:21:03.136Z,7.14
2023-03-30T00:24:06.777Z,7.11
2023-03-30T00:27:09.544Z,7.26
2023-03-30T00:30:15.548Z,7.31
2023-03-30T00:33:18.442Z,7.26
2023-03-30T00:36:22.882Z,7.29
2023-03-30T00:39:26.804Z,7.33
2023-03-30T00:42:31.661Z,7.37
2023-03-30T00:45:35.996Z,7.35
2023-03-30T00:48:40.922Z,7.38
2023-03-30T00:51:44.046Z,7.35
2023-03-30T00:54:48.077Z,7.45
2023-03-30T00:57:52.753Z,7.36
2023-03-30T01:00:58.492Z,7.32
2023-03-30T01:04:02.499Z,7.40
2023-03-30T01:07:07.673Z,7.43
2023-03-30T01:10:11.322Z,7.40
2023-03-30T01:13:15.543Z,7.46
2023-03-30T01:16:21.376Z,7.39
2023-03-30T01:19:57.008Z,7.44
2023-03-30T01:23:19.037Z,7.46
2023-03-30T01:26:25.029Z,7.41
2023-03-30T01:29:39.416Z,7.54
2023-03-30T01:33:11.761Z,7.50
2023-03-30T01:36:20.205Z,7.52
2023-03-30T01:39:35.840Z,7.49
2023-03-30T01:42:56.594Z,7.59
2023-03-30T01:46:43.357Z,7.60
2023-03-30T01:49:51.725Z,7.61
2023-03-30T01:53:14.254Z,7.61
2023-03-30T01:56:23.085Z,7.57
2023-03-30T01:59:48.690Z,7.61
2023-03-30T02:03:01.008Z,7.66
2023-03-30T02:06:10.819Z,7.68
2023-03-30T02:09:20.425Z,7.70
2023-03-30T02:12:25.509Z,7.68
2023-03-30T02:15:35.768Z,7.64
2023-03-30T02:18:39.071Z,7.63
2023-03-30T02:21:44.314Z,7.65
2023-03-30T02:24:50.613Z,7.63
2023-03-30T02:27:54.195Z,7.54
2023-03-30T02:30:58.362Z,7.53
2023-03-30T02:34:21.924Z,7.40
2023-03-30T02:38:01.940Z,7.32
2023-03-30T02:41:24.950Z,7.32
2023-03-30T02:44:39.821Z,7.20
2023-03-30T02:48:23.911Z,7.19
2023-03-30T02:51:38.137Z,7.17
2023-03-30T02:54:49.301Z,7.12
2023-03-30T02:58:23.953Z,7.08
2023-03-30T03:01:40.152Z,7.11
2023-03-30T03:04:46.560Z,7.01
2023-03-30T03:07:50.628Z,6.95
2023-03-30T03:10:53.346Z,7.02
2023-03-30T03:13:56.774Z,7.06
2023-03-30T03:17:00.013Z,7.14
2023-03-30T03:20:05.017Z,7.13
2023-03-30T03:23:07.884Z,7.20
2023-03-30T03:26:11.890Z,7.26
2023-03-30T03:29:15.029Z,7.25
2023-03-30T03:32:18.144Z,7.15
2023-03-30T03:35:21.964Z,7.17
2023-03-30T03:38:25.108Z,7.06
2023-03-30T03:41:28.125Z,7.07
2023-03-30T03:44:31.436Z,7.06
2023-03-30T03:47:35.153Z,7.11
2023-03-30T03:50:38.416Z,7.12
2023-03-30T03:53:41.766Z,7.25
2023-03-30T03:56:45.616Z,7.28
2023-03-30T03:59:48.505Z,7.29
2023-03-30T04:02:51.772Z,7.31
2023-03-30T04:05:55.676Z,7.35
2023-03-30T04:08:58.678Z,7.28
2023-03-30T04:12:02.294Z,7.45
2023-03-30T04:15:07.059Z,7.53
2023-03-30T04:18:11.458Z,7.47
2023-03-30T04:21:17.863Z,7.46
2023-03-30T04:24:22.959Z,7.49
2023-03-30T04:27:28.944Z,7.45
2023-03-30T04:30:33.040Z,7.55
2023-03-30T04:33:52.054Z,7.60
2023-03-30T04:36:55.624Z,7.51
2023-03-30T04:40:00.174Z,7.40
2023-03-30T04:43:04.127Z,7.50
2023-03-30T04:46:07.427Z,7.45
2023-03-30T04:49:11.618Z,7.36
2023-03-30T04:52:14.625Z,7.28
2023-03-30T04:55:18.277Z,7.27
2023-03-30T04:58:21.851Z,7.26
2023-03-30T05:01:25.508Z,7.23
2023-03-30T05:04:30.448Z,7.20
2023-03-30T05:07:34.461Z,7.16
2023-03-30T05:10:37.523Z,7.16
2023-03-30T05:13:42.155Z,7.18
2023-03-30T05:16:45.222Z,7.18
2023-03-30T05:19:48.742Z,7.18
2023-03-30T05:22:54.063Z,7.21
2023-03-30T05:25:58.047Z,7.21
2023-03-30T05:29:01.800Z,7.25
2023-03-30T05:32:05.929Z,7.24
2023-03-30T05:35:09.440Z,7.24
2023-03-30T05:38:12.882Z,7.28
2023-03-30T05:41:17.456Z,7.32
2023-03-30T05:44:22.551Z,7.31
2023-03-30T05:47:25.997Z,7.32
2023-03-30T05:50:29.646Z,7.44
2023-03-30T05:53:32.780Z,7.57
2023-03-30T05:56:36.226Z,7.67
2023-03-30T05:59:39.624Z,7.80
2023-03-30T06:02:42.968Z,7.86
2023-03-30T06:05:48.174Z,7.95
2023-03-30T06:08:51.537Z,8.13
2023-03-30T06:11:54.778Z,8.23
2023-03-30T06:14:58.472Z,8.26
2023-03-30T06:18:04.230Z,8.37
2023-03-30T06:21:08.361Z,8.55
2023-03-30T06:24:12.281Z,8.70
2023-03-30T06:27:15.294Z,8.72
2023-03-30T06:30:18.736Z,8.48
2023-03-30T06:33:22.506Z,8.57
2023-03-30T06:36:45.228Z,8.56
2023-03-30T06:39:49.333Z,8.47
2023-03-30T06:42:52.776Z,8.52
2023-03-30T06:45:57.305Z,8.62
2023-03-30T06:49:02.133Z,8.75
2023-03-30T06:52:13.413Z,8.97
2023-03-30T06:55:17.306Z,9.18
2023-03-30T06:58:22.249Z,8.98
2023-03-30T07:01:25.988Z,9.11
2023-03-30T07:04:31.393Z,9.08
2023-03-30T07:07:36.767Z,9.10
2023-03-30T07:10:40.895Z,9.20
2023-03-30T07:13:44.435Z,9.15
2023-03-30T07:16:49.082Z,9.03
2023-03-30T07:19:53.059Z,8.97
2023-03-30T07:22:56.318Z,8.95
2023-03-30T07:25:59.572Z,9.01
2023-03-30T07:29:04.852Z,9.10
2023-03-30T07:32:08.220Z,9.18
2023-03-30T07:35:11.396Z,9.72
2023-03-30T07:38:15.191Z,10.13
2023-03-30T07:41:19.929Z,10.78
2023-03-30T07:44:23.809Z,10.96
2023-03-30T07:47:27.983Z,10.70
2023-03-30T07:50:31.652Z,10.98
2023-03-30T07:53:37.154Z,10.75
2023-03-30T07:56:44.934Z,10.49
2023-03-30T07:59:48.319Z,10.21
2023-03-30T08:02:52.082Z,10.31
2023-03-30T08:05:59.586Z,10.73
2023-03-30T08:09:04.784Z,12.18
2023-03-30T08:12:08.312Z,12.21
2023-03-30T08:15:11.649Z,12.06
2023-03-30T08:18:15.304Z,11.72
2023-03-30T08:21:18.183Z,11.70
2023-03-30T08:24:21.771Z,12.27
2023-03-30T08:27:24.803Z,12.46
2023-03-30T08:30:28.760Z,12.20
2023-03-30T08:33:31.965Z,11.88
2023-03-30T08:36:35.304Z,12.10
2023-03-30T08:39:38.793Z,12.45
2023-03-30T08:42:57.582Z,12.19
2023-03-30T08:46:02.350Z,12.33
2023-03-30T08:49:10.018Z,12.55
2023-03-30T08:52:24.393Z,12.86
2023-03-30T08:56:10.771Z,12.99
2023-03-30T08:59:33.252Z,12.65
2023-03-30T09:02:46.673Z,13.01
2023-03-30T09:06:00.430Z,13.41
2023-03-30T09:09:04.200Z,13.42
2023-03-30T09:12:37.729Z,13.52
2023-03-30T09:16:15.059Z,13.64
2023-03-30T09:19:26.053Z,14.23
2023-03-30T09:22:38.356Z,14.36
2023-03-30T09:26:17.204Z,14.85
2023-03-30T09:29:28.548Z,14.82
2023-03-30T09:32:42.832Z,15.53
2023-03-30T09:36:12.959Z,15.54
2023-03-30T09:39:24.735Z,14.88
2023-03-30T09:43:19.944Z,15.69
2023-03-30T09:46:22.953Z,15.24
2023-03-30T09:49:38.276Z,15.31
2023-03-30T09:52:42.050Z,14.30
2023-03-30T09:56:17.176Z,14.34
2023-03-30T09:59:28.441Z,13.48
2023-03-30T10:02:34.113Z,14.15
2023-03-30T10:05:38.939Z,14.70
2023-03-30T10:08:56.616Z,14.99
2023-03-30T10:11:59.941Z,14.36
2023-03-30T10:15:04.421Z,14.05
2023-03-30T10:18:27.832Z,13.71
2023-03-30T10:21:36.442Z,13.35
2023-03-30T10:24:50.116Z,13.44
2023-03-30T10:27:56.978Z,13.86
2023-03-30T10:31:03.533Z,14.11
2023-03-30T10:34:18.274Z,14.15
2023-03-30T10:37:30.279Z,14.13
2023-03-30T10:40:37.532Z,14.27
2023-03-30T10:43:42.426Z,14.38
2023-03-30T10:46:46.126Z,14.59
2023-03-30T10:50:13.432Z,14.63
2023-03-30T10:53:42.997Z,14.80
2023-03-30T10:56:52.616Z,15.15
2023-03-30T11:00:23.308Z,15.27
2023-03-30T11:03:30.000Z,15.48
2023-03-30T11:06:41.066Z,15.77
2023-03-30T11:09:54.059Z,15.63
2023-03-30T11:13:02.530Z,15.80
2023-03-30T11:16:09.239Z,16.27
2023-03-30T11:19:39.272Z,17.01
2023-03-30T11:22:49.397Z,17.47
2023-03-30T11:26:03.311Z,16.57
2023-03-30T11:29:38.103Z,16.23
2023-03-30T11:33:03.535Z,16.76
2023-03-30T11:36:28.398Z,17.14
2023-03-30T11:39:34.586Z,16.70
2023-03-30T11:42:38.368Z,16.10
2023-03-30T11:45:51.719Z,16.02
2023-03-30T11:49:05.878Z,16.16
2023-03-30T11:52:17.572Z,16.05
2023-03-30T11:55:29.597Z,16.03
2023-03-30T11:59:02.332Z,16.70
2023-03-30T12:02:24.484Z,17.12
2023-03-30T12:05:37.649Z,16.46
2023-03-30T12:09:01.448Z,16.78
2023-03-30T12:12:17.020Z,16.62
2023-03-30T12:15:50.098Z,16.32
2023-03-30T12:19:10.001Z,15.88
2023-03-30T12:22:12.665Z,15.91
2023-03-30T12:25:36.193Z,16.17
2023-03-30T12:32:29.443Z,15.50
2023-03-30T12:35:56.764Z,15.74
2023-03-30T12:39:02.576Z,15.92
2023-03-30T12:42:11.432Z,15.51
2023-03-30T12:45:34.773Z,15.54
2023-03-30T12:48:46.887Z,15.15
2023-03-30T12:52:09.911Z,15.44
2023-03-30T12:55:23.337Z,15.68
2023-03-30T12:58:41.633Z,15.77
2023-03-30T13:02:06.441Z,15.73
2023-03-30T13:05:40.034Z,15.71
2023-03-30T13:08:43.292Z,15.46
2023-03-30T13:12:07.726Z,15.36
2023-03-30T13:15:13.256Z,15.36
2023-03-30T13:18:16.515Z,15.29
2023-03-30T13:21:21.895Z,15.35
2023-03-30T13:24:54.306Z,15.33
2023-03-30T13:28:00.397Z,15.44
2023-03-30T13:31:45.573Z,15.58
2023-03-30T13:35:05.986Z,15.45
2023-03-30T13:38:21.940Z,15.36
2023-03-30T13:42:23.349Z,15.40
2023-03-30T13:45:43.304Z,15.30
2023-03-30T13:49:18.519Z,15.25
2023-03-30T13:52:46.268Z,15.17
2023-03-30T13:55:50.285Z,15.25
2023-03-30T13:59:16.460Z,15.17
2023-03-30T14:02:22.906Z,15.20
2023-03-30T14:05:28.120Z,15.13
2023-03-30T14:08:35.765Z,15.19
2023-03-30T14:11:48.743Z,15.25
2023-03-30T14:14:53.405Z,15.25
2023-03-30T14:18:00.158Z,15.31
2023-03-30T14:21:05.663Z,15.46
2023-03-30T14:24:27.567Z,15.52
2023-03-30T14:27:38.688Z,15.54
2023-03-30T14:30:52.809Z,15.51
2023-03-30T14:33:56.107Z,15.59
2023-03-30T14:37:02.252Z,15.55
2023-03-30T14:40:15.936Z,15.51
2023-03-30T14:43:30.328Z,15.43
2023-03-30T14:46:43.083Z,15.32
2023-03-30T14:49:47.768Z,15.29
2023-03-30T14:52:52.729Z,15.25
2023-03-30T14:55:59.924Z,15.24
2023-03-30T14:59:04.096Z,15.17
2023-03-30T15:02:20.356Z,15.13
2023-03-30T15:05:27.185Z,15.12
2023-03-30T15:08:37.475Z,15.11
2023-03-30T15:11:41.267Z,15.03
2023-03-30T15:14:44.451Z,14.99
2023-03-30T15:17:50.710Z,14.96
2023-03-30T15:20:55.612Z,14.88
2023-03-30T15:24:00.573Z,14.76
2023-03-30T15:27:07.310Z,14.59
2023-03-30T15:30:33.511Z,14.33
2023-03-30T15:33:42.572Z,13.94
2023-03-30T15:36:45.887Z,13.71
2023-03-30T15:39:49.427Z,13.56
2023-03-30T15:43:11.949Z,13.38
2023-03-30T15:46:16.297Z,13.37
2023-03-30T15:49:23.639Z,13.41
2023-03-30T15:52:34.642Z,13.31
2023-03-30T15:55:40.785Z,13.30
2023-03-30T15:58:44.138Z,13.33
2023-03-30T16:01:55.745Z,13.35
2023-03-30T16:05:01.477Z,13.29
2023-03-30T16:08:05.489Z,13.29
2023-03-30T16:11:09.162Z,13.25
2023-03-30T16:14:15.687Z,13.23
2023-03-30T16:17:19.438Z,13.24
2023-03-30T16:20:28.926Z,13.23
2023-03-30T16:23:32.325Z,13.23
2023-03-30T16:26:35.382Z,13.18
2023-03-30T16:29:39.191Z,13.13
2023-03-30T16:32:42.378Z,13.07
2023-03-30T16:38:49.647Z,13.07
2023-03-30T16:41:54.375Z,13.02
2023-03-30T16:44:57.574Z,12.95
2023-03-30T16:48:01.409Z,12.89
2023-03-30T16:51:05.357Z,12.80
2023-03-30T16:54:19.595Z,12.73
2023-03-30T16:57:30.647Z,12.70
2023-03-30T17:00:46.626Z,12.67
2023-03-30T17:03:50.290Z,12.60
2023-03-30T17:06:57.150Z,12.51
2023-03-30T17:10:00.411Z,12.46
2023-03-30T17:13:04.438Z,12.48
2023-03-30T17:16:08.261Z,12.50
2023-03-30T17:19:15.002Z,12.53
2023-03-30T17:22:18.641Z,12.54
2023-03-30T17:25:26.511Z,12.59
2023-03-30T17:28:34.275Z,12.65
2023-03-30T17:31:39.178Z,12.73
2023-03-30T17:34:42.882Z,12.82
2023-03-30T17:37:47.388Z,12.90
2023-03-30T17:40:53.437Z,12.96
2023-03-30T17:43:57.620Z,13.03
2023-03-30T17:47:00.983Z,13.06
2023-03-30T17:50:25.372Z,13.13
2023-03-30T17:53:28.366Z,13.17
2023-03-30T17:56:32.926Z,13.08
2023-03-30T17:59:37.044Z,13.02
2023-03-30T18:02:41.349Z,12.87
2023-03-30T18:05:46.873Z,12.72
2023-03-30T18:08:51.099Z,12.60
2023-03-30T18:11:54.959Z,12.54
2023-03-30T18:14:59.220Z,12.49
2023-03-30T18:18:06.277Z,12.49
2023-03-30T18:21:11.838Z,12.45
2023-03-30T18:24:16.430Z,12.45
2023-03-30T18:27:21.154Z,12.45
2023-03-30T18:30:42.537Z,12.48
2023-03-30T18:33:46.832Z,12.45
2023-03-30T18:36:55.380Z,12.41
2023-03-30T18:40:01.261Z,12.38
2023-03-30T18:43:06.301Z,12.42
2023-03-30T18:46:13.485Z,12.41
2023-03-30T18:49:26.316Z,12.42
2023-03-30T18:52:32.301Z,12.45
2023-03-30T18:55:39.778Z,12.39
2023-03-30T18:58:44.717Z,12.41
2023-03-30T19:01:50.323Z,12.40
2023-03-30T19:04:56.050Z,12.33
2023-03-30T19:08:02.304Z,12.26
2023-03-30T19:11:07.230Z,12.36
2023-03-30T19:14:13.206Z,12.42
2023-03-30T19:17:17.142Z,12.36
2023-03-30T19:20:28.507Z,12.38
2023-03-30T19:23:32.618Z,12.42
2023-03-30T19:26:37.500Z,12.31
2023-03-30T19:29:41.475Z,12.26
2023-03-30T19:32:48.365Z,12.18
2023-03-30T19:35:52.905Z,11.99
2023-03-30T19:38:57.378Z,11.90
2023-03-30T19:42:01.323Z,11.80
2023-03-30T19:45:07.461Z,11.64
2023-03-30T19:48:13.218Z,11.59
2023-03-30T19:51:19.843Z,11.56
2023-03-30T19:54:23.325Z,11.52
2023-03-30T19:57:27.607Z,11.49
2023-03-30T20:00:33.228Z,11.44
2023-03-30T20:03:38.033Z,11.42
2023-03-30T20:06:41.687Z,11.43
2023-03-30T20:09:46.140Z,11.43
2023-03-30T20:12:50.788Z,11.41
2023-03-30T20:15:58.753Z,11.36
2023-03-30T20:19:13.004Z,11.35
2023-03-30T20:22:22.255Z,11.35
2023-03-30T20:25:25.917Z,11.36
2023-03-30T20:28:29.598Z,11.31
2023-03-30T20:31:32.750Z,11.30
2023-03-30T20:34:36.055Z,11.39
2023-03-30T20:37:39.102Z,11.29
2023-03-30T20:40:42.487Z,11.47
2023-03-30T20:43:57.437Z,11.49
2023-03-30T20:47:02.797Z,11.44
2023-03-30T20:50:06.318Z,11.44
2023-03-30T20:53:09.538Z,11.23
2023-03-30T20:56:12.436Z,11.15
2023-03-30T20:59:15.602Z,11.23
2023-03-30T21:02:19.036Z,11.29
2023-03-30T21:05:22.051Z,11.35
2023-03-30T21:08:24.801Z,11.45
2023-03-30T21:11:30.633Z,11.44
2023-03-30T21:14:33.337Z,11.48
2023-03-30T21:17:36.632Z,11.51
2023-03-30T21:20:39.364Z,11.40
2023-03-30T21:23:42.781Z,11.37
2023-03-30T21:26:45.466Z,11.56
2023-03-30T21:29:48.505Z,11.31
2023-03-30T21:32:51.199Z,11.25
2023-03-30T21:35:56.166Z,11.42
2023-03-30T21:39:01.021Z,11.54
2023-03-30T21:42:05.411Z,11.32
2023-03-30T21:45:11.872Z,11.49
2023-03-30T21:48:15.024Z,11.48
2023-03-30T21:51:25.187Z,11.36
2023-03-30T21:54:28.222Z,11.44
2023-03-30T21:57:30.990Z,11.33
2023-03-30T22:00:34.040Z,11.36
2023-03-30T22:03:37.389Z,11.41
2023-03-30T22:06:40.214Z,11.17
2023-03-30T22:09:43.262Z,11.39
2023-03-30T22:12:46.276Z,11.15
2023-03-30T22:16:04.913Z,11.42
2023-03-30T22:19:07.786Z,11.48
2023-03-30T22:22:10.852Z,11.64
2023-03-30T22:25:13.593Z,11.52
2023-03-30T22:28:16.989Z,11.50
2023-03-30T22:31:19.684Z,11.47
2023-03-30T22:34:22.834Z,11.25
2023-03-30T22:37:26.316Z,11.38
2023-03-30T22:40:29.452Z,11.31
2023-03-30T22:43:32.940Z,11.39
2023-03-30T22:46:35.996Z,11.48
2023-03-30T22:49:40.236Z,11.51
2023-03-30T22:52:44.517Z,11.51
2023-03-30T22:55:48.131Z,11.37
2023-03-30T22:58:51.780Z,11.41
2023-03-30T23:01:54.536Z,11.47
2023-03-30T23:04:57.591Z,11.34
2023-03-30T23:08:00.478Z,11.45
2023-03-30T23:11:06.635Z,11.47
2023-03-30T23:14:09.373Z,11.40
2023-03-30T23:17:12.442Z,11.38
2023-03-30T23:20:16.469Z,11.27
2023-03-30T23:23:19.575Z,11.15
2023-03-30T23:26:22.677Z,11.07
2023-03-30T23:29:25.835Z,11.04
2023-03-30T23:32:28.680Z,11.02
2023-03-30T23:35:31.827Z,10.92
2023-03-30T23:38:34.773Z,10.82
2023-03-30T23:41:37.766Z,10.79
2023-03-30T23:44:40.600Z,10.69
2023-03-30T23:47:44.248Z,10.72
2023-03-30T23:50:47.326Z,10.68
2023-03-30T23:53:54.584Z,10.71
2023-03-30T23:56:58.106Z,10.61
